Aviation Digital Data Service (ADDS)

Output produced by METARs form (1052 UTC 13 February 2016)
found at http://aviationweather.gov/adds/metars/
 
KJFK 130831Z 1309/1412 29012KT P6SM FEW025 SCT060 
     FM131100 29017G24KT P6SM BKN040 
     FM131300 30020G30KT P6SM BKN070 
     FM131600 31024G38KT P6SM BKN100 
     FM140600 31020G32KT P6SM SCT250